Time;durP1;ratioP1;P1;durP2;ratioP2;P2;SDS_P1;SDS_P2;PMS_P1;PMS_P2;Temp;Humidity;BMP_temperature;BMP_pressure;BME280_temperature;BME280_humidity;BME280_pressure;Samples;Min_cycle;Max_cycle;Signal;HPM_P1;HPM_P2
2023/07/21 00:01:49;;;;;;;9.48;3.08;;;;;;;14.58;61.05;98676.16;5074502;28;20107;-57
2023/07/21 00:04:14;;;;;;;5.55;2.75;;;;;;;14.82;61.28;98709.38;5074322;28;20552;-52
2023/07/21 00:06:43;;;;;;;6.65;2.53;;;;;;;14.88;60.97;98722.97;5074432;28;20029;-53
2023/07/21 00:09:11;;;;;;;10.25;2.63;;;;;;;14.87;61.42;98717.75;5072505;28;20395;-59
2023/07/21 00:11:38;;;;;;;6.00;2.53;;;;;;;14.89;61.10;98715.72;5074183;28;20365;-52
2023/07/21 00:14:05;;;;;;;5.97;2.47;;;;;;;14.91;61.01;98716.38;5074433;28;20082;-57
2023/07/21 00:16:33;;;;;;;6.35;2.80;;;;;;;14.89;61.18;98711.19;5073240;28;20394;-59
2023/07/21 00:19:02;;;;;;;4.68;2.72;;;;;;;14.95;61.19;98709.63;5073632;28;20036;-60
2023/07/21 00:21:28;;;;;;;7.07;3.70;;;;;;;14.96;61.73;98705.06;5074023;28;20044;-59
2023/07/21 00:23:54;;;;;;;5.70;3.80;;;;;;;14.96;61.20;98708.63;5074146;28;20115;-59
2023/07/21 00:26:20;;;;;;;5.10;3.28;;;;;;;14.92;61.54;98705.44;5073861;28;20032;-59
2023/07/21 00:28:46;;;;;;;7.15;3.15;;;;;;;14.96;61.79;98711.31;5073725;28;20086;-57
2023/07/21 00:31:11;;;;;;;5.95;3.38;;;;;;;14.96;61.52;98711.31;5073609;28;20034;-58
2023/07/21 00:33:37;;;;;;;7.35;2.60;;;;;;;14.97;61.56;98704.06;5074127;28;20028;-58
2023/07/21 00:36:04;;;;;;;7.32;3.10;;;;;;;14.98;61.94;98713.81;5073864;28;20064;-60
2023/07/21 00:38:30;;;;;;;4.45;2.70;;;;;;;14.97;61.75;98704.06;5073556;28;20032;-57
2023/07/21 00:40:56;;;;;;;9.30;2.85;;;;;;;14.99;61.69;98712.78;5073133;28;20357;-59
2023/07/21 00:43:22;;;;;;;7.97;3.10;;;;;;;15.01;62.03;98708.06;5073786;28;20020;-59
2023/07/21 00:45:48;;;;;;;7.85;2.80;;;;;;;15.04;61.42;98710.38;5072309;28;20511;-56
2023/07/21 00:48:16;;;;;;;5.82;3.00;;;;;;;15.03;61.70;98703.31;5073335;28;20028;-57
2023/07/21 00:50:50;;;;;;;8.65;3.20;;;;;;;15.16;61.33;98705.41;5073341;28;20522;-59
2023/07/21 00:53:16;;;;;;;6.25;3.13;;;;;;;15.11;61.35;98714.06;5073341;28;20036;-59
2023/07/21 00:55:42;;;;;;;4.40;2.88;;;;;;;15.13;61.66;98713.84;5073519;28;20040;-60
2023/07/21 00:58:09;;;;;;;5.82;2.70;;;;;;;15.12;61.16;98713.03;5073441;28;20040;-59
2023/07/21 01:00:39;;;;;;;5.68;2.80;;;;;;;15.18;61.51;98719.53;5073142;28;20024;-59
2023/07/21 01:03:05;;;;;;;6.25;2.63;;;;;;;15.18;61.30;98714.16;5073493;28;20028;-59
2023/07/21 01:05:34;;;;;;;4.30;2.45;;;;;;;15.00;61.38;98687.50;5072768;28;20086;-59
2023/07/21 01:08:01;;;;;;;9.52;3.03;;;;;;;15.24;61.47;98716.16;5073050;28;20567;-60
2023/07/21 01:10:28;;;;;;;8.05;3.60;;;;;;;15.24;61.32;98724.22;5072711;28;20059;-59
2023/07/21 01:12:54;;;;;;;6.35;3.03;;;;;;;15.25;61.59;98727.75;5072042;28;20037;-58
2023/07/21 01:15:20;;;;;;;4.63;3.17;;;;;;;15.25;61.42;98725.91;5072949;28;20055;-58
2023/07/21 01:17:49;;;;;;;13.55;3.28;;;;;;;15.28;61.41;98728.25;5072902;28;20028;-59
2023/07/21 01:20:16;;;;;;;6.72;3.45;;;;;;;15.28;61.32;98733.63;5072768;28;20432;-59
2023/07/21 01:22:52;;;;;;;10.13;2.50;;;;;;;15.39;60.94;98728.81;5072919;28;20048;-58
2023/07/21 01:25:18;;;;;;;9.07;3.10;;;;;;;15.34;61.03;98729.38;5073093;28;20112;-61
2023/07/21 01:27:48;;;;;;;7.60;2.80;;;;;;;15.26;61.06;98718.63;5072327;28;20086;-58
2023/07/21 01:30:16;;;;;;;5.43;3.17;;;;;;;15.36;61.12;98733.56;5072818;28;20043;-58
2023/07/21 01:32:46;;;;;;;7.32;3.13;;;;;;;15.29;60.88;98716.44;5072936;28;20071;-55
2023/07/21 01:35:15;;;;;;;7.68;2.83;;;;;;;15.41;60.76;98732.16;5072580;28;20123;-58
2023/07/21 01:37:43;;;;;;;10.60;3.00;;;;;;;15.41;60.79;98738.41;5072988;28;20386;-59
2023/07/21 01:40:13;;;;;;;4.43;2.38;;;;;;;15.44;60.21;98746.13;5073151;28;20362;-51
2023/07/21 01:42:41;;;;;;;5.03;2.17;;;;;;;15.48;59.94;98749.31;5072999;28;20050;-56
2023/07/21 01:45:07;;;;;;;4.60;2.50;;;;;;;15.50;59.91;98742.69;5072653;28;20043;-58
2023/07/21 01:47:33;;;;;;;5.35;2.88;;;;;;;15.54;59.86;98751.28;5072555;28;20036;-59
2023/07/21 01:50:00;;;;;;;7.47;2.45;;;;;;;15.57;59.66;98744.69;5072990;28;20028;-57
2023/07/21 01:52:31;;;;;;;4.47;2.55;;;;;;;15.63;59.78;98742.06;5072516;28;20082;-58
2023/07/21 01:55:01;;;;;;;5.25;2.67;;;;;;;15.67;59.14;98744.41;5072171;28;20064;-58
2023/07/21 01:57:33;;;;;;;7.25;2.80;;;;;;;15.72;59.47;98744.72;5072724;28;20029;-58
2023/07/21 02:00:04;;;;;;;5.78;2.63;;;;;;;15.73;59.48;98744.50;5071877;28;20068;-59
2023/07/21 02:02:31;;;;;;;7.80;2.60;;;;;;;15.48;59.63;98706.97;5071677;28;20032;-60
2023/07/21 02:04:56;;;;;;;4.32;2.42;;;;;;;15.55;59.57;98725.97;5072207;28;20029;-59
2023/07/21 02:07:22;;;;;;;4.47;2.70;;;;;;;15.73;59.81;98744.50;5072403;28;20032;-59
2023/07/21 02:09:52;;;;;;;4.88;2.22;;;;;;;15.78;59.74;98747.47;5072324;28;20052;-57
2023/07/21 02:12:19;;;;;;;7.20;2.97;;;;;;;15.70;59.58;98739.47;5072506;28;20127;-59
2023/07/21 02:14:44;;;;;;;6.43;2.60;;;;;;;15.77;59.46;98745.81;5072062;28;20109;-56
2023/07/21 02:17:10;;;;;;;8.80;2.80;;;;;;;15.59;59.51;98716.47;5072765;28;20134;-57
2023/07/21 02:19:55;;;;;;;4.43;2.67;;;;;;;15.90;59.45;98749.78;5071822;28;20460;-58
2023/07/21 02:22:21;;;;;;;6.85;2.67;;;;;;;15.95;58.96;98751.94;5072387;28;20075;-58
2023/07/21 02:24:46;;;;;;;4.88;2.67;;;;;;;15.91;58.80;98732.56;5072220;28;20357;-58
2023/07/21 02:27:12;;;;;;;6.20;2.80;;;;;;;15.75;58.79;98701.16;5072499;28;20090;-58
2023/07/21 02:29:37;;;;;;;6.63;2.67;;;;;;;15.97;59.06;98741.78;5072432;28;20025;-58
2023/07/21 02:32:03;;;;;;;6.25;2.88;;;;;;;16.03;59.03;98746.44;5072193;28;20340;-58
2023/07/21 02:34:29;;;;;;;4.97;2.50;;;;;;;16.05;58.82;98741.69;5071953;28;20504;-59
2023/07/21 02:36:55;;;;;;;5.53;2.83;;;;;;;16.07;59.02;98745.03;5072135;28;20039;-61
2023/07/21 02:39:20;;;;;;;4.15;2.28;;;;;;;16.09;58.69;98728.66;5072411;28;20029;-59
2023/07/21 02:41:46;;;;;;;3.78;2.70;;;;;;;16.15;58.48;98738.69;5075486;28;20033;-55
2023/07/21 02:44:11;;;;;;;5.22;2.47;;;;;;;16.16;58.29;98737.66;5075974;28;20434;-60
2023/07/21 02:46:37;;;;;;;4.20;2.40;;;;;;;16.26;58.00;98745.50;5075608;28;20033;-56
2023/07/21 02:49:03;;;;;;;6.20;2.63;;;;;;;16.31;58.03;98746.63;5075749;28;20401;-60
2023/07/21 02:51:28;;;;;;;7.95;2.60;;;;;;;16.37;57.76;98739.59;5075735;28;20471;-59
2023/07/21 02:53:54;;;;;;;5.28;2.65;;;;;;;16.44;57.42;98739.69;5075731;28;20067;-58
2023/07/21 02:56:19;;;;;;;6.63;2.53;;;;;;;16.50;57.61;98738.94;5075611;28;20024;-56
2023/07/21 02:58:45;;;;;;;7.15;2.35;;;;;;;16.57;57.14;98733.59;5075947;28;20116;-60
2023/07/21 03:01:12;;;;;;;6.93;2.60;;;;;;;16.59;57.02;98736.97;5075314;28;20055;-57
2023/07/21 03:03:39;;;;;;;4.63;2.30;;;;;;;16.62;56.91;98733.88;5075610;28;20401;-58
2023/07/21 03:06:06;;;;;;;8.55;2.70;;;;;;;16.66;56.66;98735.19;5075294;28;20025;-60
2023/07/21 03:08:32;;;;;;;8.15;2.80;;;;;;;16.61;56.59;98714.13;5074864;28;20028;-60
2023/07/21 03:10:58;;;;;;;6.45;2.60;;;;;;;16.66;56.64;98727.09;5075494;28;20044;-58
2023/07/21 03:13:24;;;;;;;5.22;2.42;;;;;;;16.68;56.78;98730.44;5074432;28;20033;-59
2023/07/21 03:15:51;;;;;;;5.82;2.67;;;;;;;16.63;56.81;98720.19;5074417;28;20025;-55
2023/07/21 03:18:17;;;;;;;6.75;4.18;;;;;;;16.62;57.16;98712.25;5074613;28;20032;-56
2023/07/21 03:20:43;;;;;;;5.05;2.75;;;;;;;16.69;57.05;98713.19;5075425;28;20046;-59
2023/07/21 03:23:09;;;;;;;7.72;3.50;;;;;;;16.56;57.13;98691.41;5075019;28;20032;-60
2023/07/21 03:25:35;;;;;;;7.32;4.18;;;;;;;16.77;56.04;98717.63;5074979;28;20028;-58
2023/07/21 03:28:02;;;;;;;3.90;2.30;;;;;;;16.92;55.53;98714.88;5075298;28;20035;-58
2023/07/21 03:30:28;;;;;;;5.88;3.40;;;;;;;17.07;55.10;98723.78;5075109;28;20036;-57
2023/07/21 03:32:53;;;;;;;6.95;3.30;;;;;;;17.20;54.21;98717.66;5074836;28;20138;-57
2023/07/21 03:35:19;;;;;;;6.25;3.00;;;;;;;17.40;54.43;98717.00;5075118;28;20085;-58
2023/07/21 03:37:45;;;;;;;5.07;2.60;;;;;;;17.52;53.45;98720.00;5075236;28;20032;-59
2023/07/21 03:40:11;;;;;;;3.75;2.72;;;;;;;17.60;53.37;98730.69;5073713;28;20032;-57
2023/07/21 03:42:36;;;;;;;6.65;2.60;;;;;;;17.64;53.75;98726.56;5074970;28;20088;-59
2023/07/21 03:45:03;;;;;;;9.77;2.90;;;;;;;17.65;53.64;98732.78;5074939;28;20144;-59
2023/07/21 03:47:31;;;;;;;6.97;2.53;;;;;;;17.71;53.29;98736.59;5074628;28;20032;-60
2023/07/21 03:49:57;;;;;;;7.40;2.45;;;;;;;17.79;52.57;98731.00;5074559;28;20037;-58
2023/07/21 03:52:22;;;;;;;3.92;2.55;;;;;;;17.89;52.09;98730.66;5074629;28;20029;-56
2023/07/21 03:54:48;;;;;;;5.65;2.70;;;;;;;18.01;51.76;98739.06;5074859;28;20038;-59
2023/07/21 03:57:14;;;;;;;7.47;2.78;;;;;;;18.11;51.40;98734.19;5074592;28;20337;-58
2023/07/21 03:59:41;;;;;;;5.40;2.72;;;;;;;18.16;51.35;98731.69;5073612;28;20365;-57
2023/07/21 04:02:07;;;;;;;8.00;3.10;;;;;;;18.26;50.94;98744.03;5074092;28;20032;-57
2023/07/21 04:04:33;;;;;;;8.80;2.78;;;;;;;18.28;50.80;98747.38;5074614;28;20024;-60
2023/07/21 04:07:01;;;;;;;7.05;3.17;;;;;;;18.05;50.66;98713.28;5074574;28;20024;-57
2023/07/21 04:09:31;;;;;;;9.05;3.95;;;;;;;18.09;51.08;98720.00;5073840;28;20139;-57
2023/07/21 04:11:56;;;;;;;5.90;3.50;;;;;;;18.25;50.95;98751.34;5074186;28;20040;-60
2023/07/21 04:14:22;;;;;;;8.13;3.60;;;;;;;18.28;50.85;98747.38;5074518;28;20499;-59
2023/07/21 04:16:47;;;;;;;8.55;3.35;;;;;;;18.33;50.88;98753.03;5074262;28;20036;-60
2023/07/21 04:19:13;;;;;;;7.43;3.17;;;;;;;18.39;50.38;98759.50;5074075;28;20043;-57
2023/07/21 04:21:38;;;;;;;5.30;3.40;;;;;;;18.40;50.21;98753.91;5073802;28;20028;-57
2023/07/21 04:24:04;;;;;;;5.20;3.40;;;;;;;18.46;50.59;98753.09;5074211;28;20028;-59
2023/07/21 04:26:29;;;;;;;8.32;3.00;;;;;;;18.50;50.73;98753.53;5074074;28;20032;-59
2023/07/21 04:28:55;;;;;;;7.38;3.38;;;;;;;18.58;50.53;98766.09;5073806;28;20062;-59
2023/07/21 04:31:22;;;;;;;8.05;3.10;;;;;;;18.60;50.30;98774.84;5073805;28;20055;-60
2023/07/21 04:33:49;;;;;;;6.95;3.53;;;;;;;18.54;50.46;98781.06;5074212;28;20032;-61
2023/07/21 04:36:14;;;;;;;10.82;3.40;;;;;;;18.43;50.60;98758.91;5073310;28;20024;-58
2023/07/21 04:38:40;;;;;;;7.20;3.65;;;;;;;18.33;50.84;98743.03;5073278;28;20035;-58
2023/07/21 04:41:06;;;;;;;8.52;3.63;;;;;;;18.60;50.41;98766.72;5073525;28;20029;-59
2023/07/21 04:43:31;;;;;;;8.27;3.60;;;;;;;18.75;50.11;98772.78;5073291;28;20032;-59
2023/07/21 04:45:57;;;;;;;7.38;3.88;;;;;;;18.89;50.07;98759.28;5073587;28;20033;-57
2023/07/21 04:48:22;;;;;;;7.53;3.28;;;;;;;19.15;49.76;98758.53;5073547;28;20490;-58
2023/07/21 04:50:54;;;;;;;8.27;3.60;;;;;;;19.56;48.71;98772.16;5073597;28;20035;-57
2023/07/21 04:53:19;;;;;;;7.25;3.13;;;;;;;19.79;47.86;98771.75;5073565;28;20106;-58
2023/07/21 04:55:45;;;;;;;11.50;3.53;;;;;;;20.18;47.15;98780.06;5073211;28;20513;-60
2023/07/21 04:58:11;;;;;;;5.72;2.88;;;;;;;20.70;46.04;98765.66;5073474;28;20048;-58
2023/07/21 05:00:36;;;;;;;7.63;3.67;;;;;;;21.18;44.62;98767.09;5073337;28;20035;-58
2023/07/21 05:03:02;;;;;;;7.15;3.67;;;;;;;21.41;43.84;98733.00;5072790;28;20054;-60
2023/07/21 05:05:27;;;;;;;8.18;3.35;;;;;;;21.93;43.14;98769.03;5073443;28;20038;-57
2023/07/21 05:07:54;;;;;;;7.43;3.58;;;;;;;22.55;42.08;98772.84;5073334;28;20440;-57
2023/07/21 05:10:20;;;;;;;6.00;3.45;;;;;;;24.43;38.24;98760.03;5073286;28;20041;-59
2023/07/21 05:12:45;;;;;;;8.80;3.55;;;;;;;26.67;34.28;98752.53;5072061;28;20090;-58
2023/07/21 05:15:13;;;;;;;5.82;3.08;;;;;;;28.54;31.21;98749.38;5073140;28;20395;-59
2023/07/21 05:17:40;;;;;;;7.53;3.20;;;;;;;30.40;28.44;98762.47;5073180;28;20032;-59
2023/07/21 05:20:07;;;;;;;4.40;2.72;;;;;;;31.57;25.76;98739.13;5072964;28;20463;-57
2023/07/21 05:22:33;;;;;;;7.53;2.88;;;;;;;33.19;24.23;98750.03;5072974;28;20036;-61
2023/07/21 05:24:58;;;;;;;7.38;3.10;;;;;;;34.09;22.57;98749.13;5072988;28;20455;-59
2023/07/21 05:27:24;;;;;;;5.45;2.35;;;;;;;34.30;21.93;98707.84;5072805;28;20041;-58
2023/07/21 05:29:49;;;;;;;4.05;2.58;;;;;;;35.95;20.64;98754.44;5073270;28;20025;-60
2023/07/21 05:32:15;;;;;;;7.75;3.10;;;;;;;36.98;19.48;98754.28;5072931;28;20032;-60
2023/07/21 05:34:42;;;;;;;8.65;2.63;;;;;;;36.64;19.30;98747.50;5072855;28;20024;-61
2023/07/21 05:37:11;;;;;;;7.72;2.90;;;;;;;36.00;20.05;98757.06;5072783;28;20133;-58
2023/07/21 05:39:36;;;;;;;7.38;2.63;;;;;;;36.75;19.38;98754.41;5073011;28;20441;-58
2023/07/21 05:42:03;;;;;;;4.90;2.60;;;;;;;38.04;18.01;98759.78;5072835;28;20103;-61
2023/07/21 05:44:32;;;;;;;6.30;2.80;;;;;;;39.18;16.79;98741.53;5072735;28;20029;-59
2023/07/21 05:46:58;;;;;;;4.90;2.63;;;;;;;40.16;16.01;98756.22;5072771;28;20058;-59
2023/07/21 05:49:23;;;;;;;8.32;2.67;;;;;;;40.80;15.09;98761.50;5073143;28;20083;-60
2023/07/21 05:51:50;;;;;;;5.13;3.08;;;;;;;41.25;14.88;98754.00;5072738;28;20036;-59
2023/07/21 05:54:16;;;;;;;7.90;3.38;;;;;;;41.58;14.48;98756.53;5072762;28;20024;-61
2023/07/21 05:56:41;;;;;;;3.40;2.00;;;;;;;39.72;15.73;98753.88;5072755;28;20067;-60
2023/07/21 05:59:07;;;;;;;4.93;2.00;;;;;;;37.56;17.72;98756.91;5073096;28;20020;-60
2023/07/21 06:01:35;;;;;;;3.53;1.83;;;;;;;35.78;19.41;98750.41;5071823;28;20071;-59
2023/07/21 06:04:01;;;;;;;3.85;1.90;;;;;;;35.67;19.96;98758.19;5072699;28;20111;-60
2023/07/21 06:06:29;;;;;;;4.13;1.80;;;;;;;36.65;18.86;98749.13;5072770;28;20189;-58
2023/07/21 06:08:54;;;;;;;5.60;1.92;;;;;;;36.40;18.64;98743.13;5072627;28;20060;-61
2023/07/21 06:11:20;;;;;;;2.72;1.60;;;;;;;36.78;18.08;98748.19;5072494;28;20036;-61
2023/07/21 06:13:45;;;;;;;6.75;2.00;;;;;;;38.82;16.65;98742.94;5072294;28;20186;-58
2023/07/21 06:16:11;;;;;;;6.32;1.85;;;;;;;40.05;15.52;98739.84;5075157;28;20115;-60
2023/07/21 06:18:36;;;;;;;7.07;1.60;;;;;;;40.44;15.08;98739.50;5076384;28;20031;-60
2023/07/21 06:21:03;;;;;;;5.32;1.80;;;;;;;39.34;15.90;98745.34;5076327;28;20086;-61
2023/07/21 06:23:29;;;;;;;3.50;1.40;;;;;;;40.07;14.82;98747.91;5076127;28;20025;-58
2023/07/21 06:25:54;;;;;;;2.15;1.40;;;;;;;40.21;14.63;98755.16;5076301;28;20031;-60
2023/07/21 06:28:21;;;;;;;2.92;1.70;;;;;;;38.75;15.40;98740.69;5076320;28;20024;-61
2023/07/21 06:30:47;;;;;;;3.08;1.50;;;;;;;37.50;16.59;98741.50;5075464;28;20036;-60
2023/07/21 06:33:13;;;;;;;5.53;1.70;;;;;;;37.26;16.96;98731.66;5076347;28;20406;-60
2023/07/21 06:35:39;;;;;;;3.80;1.40;;;;;;;37.05;16.83;98729.53;5076101;28;20036;-57
2023/07/21 06:38:07;;;;;;;4.50;1.27;;;;;;;37.33;16.33;98733.94;5076088;28;20043;-59
2023/07/21 06:40:33;;;;;;;3.65;1.50;;;;;;;38.91;15.07;98733.34;5075761;28;20052;-61
2023/07/21 06:42:59;;;;;;;3.10;1.30;;;;;;;41.41;13.69;98734.38;5076138;28;20025;-54
2023/07/21 06:45:25;;;;;;;3.08;1.52;;;;;;;43.56;11.51;98738.28;5075949;28;20455;-61
2023/07/21 06:47:50;;;;;;;5.15;1.83;;;;;;;43.56;11.83;98735.47;5075730;28;20456;-61
2023/07/21 06:50:16;;;;;;;3.67;1.70;;;;;;;43.44;11.65;98713.91;5075716;28;20036;-60
2023/07/21 06:52:42;;;;;;;3.92;1.40;;;;;;;43.45;11.39;98733.25;5075573;28;20033;-60
2023/07/21 06:55:08;;;;;;;4.80;1.80;;;;;;;44.72;10.87;98732.56;5075362;28;20506;-60
2023/07/21 06:57:33;;;;;;;3.10;1.50;;;;;;;45.21;10.57;98734.81;5074738;28;20437;-60
2023/07/21 06:59:59;;;;;;;5.78;1.63;;;;;;;46.08;9.48;98730.88;5075749;28;20039;-60
2023/07/21 07:02:24;;;;;;;7.55;1.60;;;;;;;47.19;8.19;98726.31;5075801;28;20040;-59
2023/07/21 07:04:54;;;;;;;5.88;2.40;;;;;;;48.19;8.74;98726.09;5075369;28;20037;-60
2023/07/21 07:07:19;;;;;;;4.53;1.80;;;;;;;49.65;7.81;98739.41;5075474;28;20043;-59
2023/07/21 07:09:45;;;;;;;5.43;1.60;;;;;;;50.53;7.01;98736.63;5075093;28;20052;-61
2023/07/21 07:12:11;;;;;;;4.35;1.70;;;;;;;50.49;6.77;98730.19;5075425;28;20047;-59
2023/07/21 07:14:37;;;;;;;2.88;1.90;;;;;;;50.67;6.68;98725.13;5075238;28;20028;-60
2023/07/21 07:17:03;;;;;;;2.92;1.73;;;;;;;51.13;6.33;98739.25;5075404;28;20028;-59
2023/07/21 07:19:28;;;;;;;4.68;2.08;;;;;;;51.40;6.20;98741.34;5075608;28;20039;-59
2023/07/21 07:21:54;;;;;;;2.83;1.80;;;;;;;51.75;6.35;98730.63;5074959;28;20341;-59
2023/07/21 07:24:20;;;;;;;3.13;1.95;;;;;;;52.37;5.89;98736.13;5075162;28;20032;-60
2023/07/21 07:26:46;;;;;;;2.90;2.50;;;;;;;52.67;6.04;98734.31;5074765;28;20032;-60
2023/07/21 07:29:12;;;;;;;4.00;2.15;;;;;;;52.87;5.80;98727.00;5075084;28;20086;-60
2023/07/21 07:31:37;;;;;;;3.20;1.95;;;;;;;53.00;5.50;98739.38;5074582;28;20028;-59
2023/07/21 07:34:04;;;;;;;2.83;2.45;;;;;;;52.99;5.68;98739.81;5075091;28;20345;-61
2023/07/21 07:36:29;;;;;;;2.92;2.50;;;;;;;53.21;5.70;98735.25;5075173;28;20365;-61
2023/07/21 07:38:55;;;;;;;3.60;2.97;;;;;;;53.41;4.87;98737.28;5074447;28;20025;-62
2023/07/21 07:41:20;;;;;;;8.90;3.28;;;;;;;53.74;4.84;98734.47;5074458;28;20115;-61
2023/07/21 07:43:46;;;;;;;5.53;2.60;;;;;;;53.72;4.83;98733.34;5074708;28;20032;-61
2023/07/21 07:46:11;;;;;;;4.40;2.53;;;;;;;52.62;5.22;98722.59;5074593;28;20035;-60
2023/07/21 07:48:37;;;;;;;6.57;2.15;;;;;;;51.68;5.88;98720.13;5074629;28;20487;-60
2023/07/21 07:51:05;;;;;;;2.55;1.95;;;;;;;52.22;5.20;98734.75;5074608;28;20051;-58
2023/07/21 07:53:35;;;;;;;2.58;1.92;;;;;;;53.25;4.89;98735.97;5074722;28;20444;-60
2023/07/21 07:56:01;;;;;;;5.00;2.15;;;;;;;53.05;5.21;98709.47;5074752;28;20137;-61
2023/07/21 07:58:27;;;;;;;3.30;2.00;;;;;;;52.28;5.25;98720.78;5074166;28;20441;-60
2023/07/21 08:00:57;;;;;;;1.83;1.73;;;;;;;48.89;6.79;98733.28;5073679;28;20036;-60
2023/07/21 08:03:23;;;;;;;1.60;1.50;;;;;;;46.30;8.18;98734.72;5074558;28;20036;-61
2023/07/21 08:05:50;;;;;;;1.92;1.70;;;;;;;46.85;8.31;98716.03;5074282;28;20030;-59
2023/07/21 08:08:18;;;;;;;3.20;1.33;;;;;;;48.32;7.15;98735.81;5073866;28;20111;-59
2023/07/21 08:10:44;;;;;;;2.08;1.60;;;;;;;49.04;6.19;98734.81;5073571;28;20053;-61
2023/07/21 08:13:10;;;;;;;2.10;1.58;;;;;;;49.11;6.57;98731.16;5073979;28;20037;-60
2023/07/21 08:15:36;;;;;;;3.13;1.50;;;;;;;48.70;7.08;98721.94;5073125;28;20028;-60
2023/07/21 08:18:01;;;;;;;1.67;1.50;;;;;;;46.89;7.80;98730.25;5074262;28;20504;-61
2023/07/21 08:20:27;;;;;;;2.67;1.40;;;;;;;45.84;8.77;98718.97;5072858;28;20025;-61
2023/07/21 08:22:52;;;;;;;2.33;1.20;;;;;;;45.13;8.54;98711.34;5074089;28;20024;-61
2023/07/21 08:25:19;;;;;;;2.70;1.27;;;;;;;43.18;9.75;98716.19;5074013;28;20463;-61
2023/07/21 08:27:45;;;;;;;1.45;1.20;;;;;;;41.11;11.16;98721.50;5073930;28;20416;-60
2023/07/21 08:30:12;;;;;;;1.13;0.93;;;;;;;39.30;12.54;98735.16;5073734;28;20037;-60
2023/07/21 08:32:40;;;;;;;4.28;1.00;;;;;;;37.65;14.35;98733.75;5073825;28;20472;-61
2023/07/21 08:35:10;;;;;;;7.55;1.50;;;;;;;35.99;15.51;98727.56;5073504;28;20445;-58
2023/07/21 08:37:38;;;;;;;1.75;1.48;;;;;;;34.65;16.79;98729.66;5073022;28;20032;-60
2023/07/21 08:40:05;;;;;;;7.63;1.50;;;;;;;33.44;18.03;98736.91;5073698;28;20043;-60
2023/07/21 08:42:33;;;;;;;4.13;1.25;;;;;;;32.31;19.31;98743.69;5073724;28;20032;-60
2023/07/21 08:45:00;;;;;;;3.58;1.17;;;;;;;31.25;21.35;98734.97;5073467;28;20112;-61
2023/07/21 08:47:26;;;;;;;4.22;1.58;;;;;;;30.42;22.51;98738.16;5073644;28;20028;-60
2023/07/21 08:49:51;;;;;;;1.98;1.30;;;;;;;29.91;23.29;98731.69;5073574;28;20051;-62
2023/07/21 08:52:17;;;;;;;4.32;0.98;;;;;;;29.61;22.07;98732.53;5073559;28;20029;-60
2023/07/21 08:54:43;;;;;;;8.27;1.25;;;;;;;29.00;22.39;98723.94;5073062;28;20426;-61
2023/07/21 08:57:13;;;;;;;3.83;0.90;;;;;;;28.65;23.47;98744.75;5073414;28;20024;-59
2023/07/21 08:59:39;;;;;;;3.08;1.25;;;;;;;28.26;23.73;98745.13;5073174;28;20028;-58
2023/07/21 09:02:05;;;;;;;4.30;1.20;;;;;;;28.01;24.43;98752.13;5073340;28;20097;-57
2023/07/21 09:04:31;;;;;;;3.10;1.35;;;;;;;27.88;24.56;98748.72;5073266;28;20021;-58
2023/07/21 09:06:58;;;;;;;2.17;1.10;;;;;;;27.80;24.06;98749.25;5073298;28;20031;-58
2023/07/21 09:09:27;;;;;;;4.50;0.98;;;;;;;27.71;24.27;98756.31;5071887;28;20399;-59
2023/07/21 09:12:04;;;;;;;1.73;0.88;;;;;;;27.83;24.25;98754.22;5071980;28;20360;-59
2023/07/21 09:14:39;;;;;;;3.97;1.17;;;;;;;27.62;25.24;98756.00;5073145;28;20025;-59
2023/07/21 09:17:07;;;;;;;3.83;1.10;;;;;;;27.31;25.12;98756.50;5073107;28;20444;-59
2023/07/21 09:19:37;;;;;;;2.63;1.20;;;;;;;27.20;24.36;98760.25;5072345;28;20075;-61
2023/07/21 09:22:03;;;;;;;3.45;1.02;;;;;;;26.84;24.89;98746.94;5072937;28;20032;-60
2023/07/21 09:24:28;;;;;;;1.58;1.10;;;;;;;26.77;25.50;98752.66;5073052;28;20321;-58
2023/07/21 09:27:14;;;;;;;2.60;0.88;;;;;;;27.06;25.08;98754.34;5072733;28;20039;-60
2023/07/21 09:29:40;;;;;;;;;;;;;;;27.29;23.89;98761.44;5073495;28;20021;-58
2023/07/21 09:32:16;;;;;;;3.78;0.90;;;;;;;26.69;25.00;98739.38;5072971;28;20344;-60
2023/07/21 09:34:54;;;;;;;1.70;0.70;;;;;;;26.61;24.55;98764.53;5072500;28;20029;-61
2023/07/21 09:37:21;;;;;;;2.03;0.90;;;;;;;26.36;25.38;98752.97;5071707;28;20055;-60
2023/07/21 09:39:52;;;;;;;2.40;0.88;;;;;;;26.45;25.36;98764.34;5072579;28;20090;-59
2023/07/21 09:42:22;;;;;;;6.03;1.20;;;;;;;26.52;25.62;98753.16;5072857;28;20040;-60
2023/07/21 09:44:48;;;;;;;1.80;1.00;;;;;;;26.48;25.93;98749.28;5072773;28;20028;-60
2023/07/21 09:47:16;;;;;;;2.10;0.90;;;;;;;26.47;25.53;98753.94;5071922;28;20426;-60
2023/07/21 09:49:41;;;;;;;2.97;0.80;;;;;;;26.35;26.01;98753.22;5072703;28;20036;-59
2023/07/21 09:52:11;;;;;;;2.28;0.73;;;;;;;26.17;26.39;98754.38;5072805;28;20032;-60
2023/07/21 09:54:39;;;;;;;0.88;0.80;;;;;;;25.98;26.79;98751.88;5072021;28;20024;-60
2023/07/21 09:57:06;;;;;;;1.83;0.77;;;;;;;25.80;27.23;98756.53;5072666;28;20036;-61
2023/07/21 09:59:37;;;;;;;4.10;1.00;;;;;;;25.66;26.93;98747.00;5072650;28;20040;-61
2023/07/21 10:02:06;;;;;;;2.85;1.20;;;;;;;25.48;26.99;98720.69;5072587;28;20043;-60
2023/07/21 10:04:33;;;;;;;3.25;1.13;;;;;;;25.56;26.88;98712.06;5072540;28;20397;-60
2023/07/21 10:06:58;;;;;;;2.92;1.00;;;;;;;25.86;26.96;98748.41;5072258;28;20046;-59
2023/07/21 10:09:26;;;;;;;3.08;1.10;;;;;;;26.00;26.58;98754.34;5072367;28;20456;-60
2023/07/21 10:11:52;;;;;;;5.40;0.90;;;;;;;26.07;26.15;98744.06;5072688;28;20041;-60
2023/07/21 10:14:33;;;;;;;1.67;0.90;;;;;;;26.45;26.26;98749.78;5072384;28;20055;-59
2023/07/21 10:17:00;;;;;;;0.95;0.80;;;;;;;26.61;25.46;98759.03;5072604;28;20035;-60
2023/07/21 10:19:29;;;;;;;0.98;0.85;;;;;;;26.88;25.91;98750.03;5072530;28;20056;-61
2023/07/21 10:21:54;;;;;;;4.00;0.93;;;;;;;27.23;25.26;98754.22;5072389;28;20025;-58
2023/07/21 10:24:32;;;;;;;2.70;0.88;;;;;;;27.59;24.85;98716.09;5072391;28;20035;-59
2023/07/21 10:27:02;;;;;;;3.05;0.98;;;;;;;28.09;24.20;98743.38;5072582;28;20388;-60
2023/07/21 10:29:27;;;;;;;4.57;1.17;;;;;;;28.22;23.91;98740.19;5072418;28;20039;-60
2023/07/21 10:31:54;;;;;;;3.30;0.90;;;;;;;28.08;24.52;98744.47;5072211;28;20032;-61
2023/07/21 10:34:43;;;;;;;2.80;1.25;;;;;;;28.04;25.62;98746.09;5072304;28;20039;-60
2023/07/21 10:37:09;;;;;;;1.92;0.88;;;;;;;28.07;25.63;98745.56;5072423;28;20044;-60
2023/07/21 10:39:37;;;;;;;3.08;0.95;;;;;;;27.81;25.38;98737.16;5072313;28;20036;-57
2023/07/21 10:42:08;;;;;;;4.00;1.20;;;;;;;27.52;26.22;98737.50;5072027;28;20396;-62
2023/07/21 10:44:44;;;;;;;3.17;1.27;;;;;;;27.05;27.07;98748.03;5072292;28;20553;-61
2023/07/21 10:47:13;;;;;;;2.30;1.20;;;;;;;26.38;27.27;98728.03;5072459;28;20036;-59
2023/07/21 10:49:38;;;;;;;4.60;1.60;;;;;;;25.97;28.63;98742.00;5072308;28;20409;-59
2023/07/21 10:52:04;;;;;;;2.95;1.30;;;;;;;25.45;29.36;98737.59;5072308;28;20044;-60
2023/07/21 10:54:30;;;;;;;4.55;1.15;;;;;;;25.15;30.15;98741.47;5072225;28;20028;-60
2023/07/21 10:56:58;;;;;;;1.92;1.42;;;;;;;25.06;30.02;98749.25;5071959;28;20028;-59
2023/07/21 10:59:24;;;;;;;4.70;1.23;;;;;;;25.08;30.46;98744.34;5071335;28;20379;-61
2023/07/21 11:01:54;;;;;;;4.97;1.20;;;;;;;25.27;30.28;98747.69;5074211;28;20040;-60
2023/07/21 11:04:21;;;;;;;6.60;1.25;;;;;;;25.30;29.55;98719.81;5075611;28;20039;-58
2023/07/21 11:06:50;;;;;;;4.00;1.27;;;;;;;25.77;29.17;98753.47;5075750;28;20071;-57
2023/07/21 11:09:17;;;;;;;1.33;1.02;;;;;;;25.75;29.68;98755.63;5075582;28;20072;-58
2023/07/21 11:11:45;;;;;;;4.93;1.60;;;;;;;25.59;29.98;98751.81;5075747;28;20074;-59
2023/07/21 11:14:29;;;;;;;3.22;1.73;;;;;;;25.43;30.14;98764.41;5075629;28;20044;-59
2023/07/21 11:16:56;;;;;;;6.18;1.83;;;;;;;25.03;30.69;98749.75;5074588;28;20063;-58
2023/07/21 11:19:30;;;;;;;4.35;1.40;;;;;;;24.94;30.65;98754.78;5075706;28;20035;-58
2023/07/21 11:21:56;;;;;;;2.05;1.52;;;;;;;24.77;30.90;98743.78;5074244;28;20062;-58
2023/07/21 11:24:29;;;;;;;3.17;1.60;;;;;;;24.92;30.61;98755.00;5075258;28;20028;-58
2023/07/21 11:26:58;;;;;;;3.30;1.35;;;;;;;24.91;30.41;98766.22;5075397;28;20055;-60
2023/07/21 11:29:26;;;;;;;4.00;1.80;;;;;;;24.73;30.75;98726.97;5075222;28;20025;-60
2023/07/21 11:31:51;;;;;;;3.90;1.52;;;;;;;24.94;31.68;98760.25;5074976;28;20401;-59
2023/07/21 11:34:25;;;;;;;3.28;1.50;;;;;;;25.06;30.65;98766.50;5075079;28;20032;-60